sensor_id;sensor_type;location;lat;lon;timestamp;P1;durP1;ratioP1;P2;durP2;ratioP2
54947;SDS011;41113;41.882;12.530;2022-11-20T00:01:37;7.35;;;2.08;;
54947;SDS011;41113;41.882;12.530;2022-11-20T00:04:03;6.18;;;1.63;;
54947;SDS011;41113;41.882;12.530;2022-11-20T00:06:28;4.78;;;1.38;;
54947;SDS011;41113;41.882;12.530;2022-11-20T00:08:55;7.05;;;1.88;;
54947;SDS011;41113;41.882;12.530;2022-11-20T00:11:23;7.45;;;1.90;;
54947;SDS011;41113;41.882;12.530;2022-11-20T00:13:51;8.50;;;2.55;;
54947;SDS011;41113;41.882;12.530;2022-11-20T00:16:19;6.95;;;1.80;;
54947;SDS011;41113;41.882;12.530;2022-11-20T00:18:46;3.05;;;1.30;;
54947;SDS011;41113;41.882;12.530;2022-11-20T00:21:13;7.82;;;2.00;;
54947;SDS011;41113;41.882;12.530;2022-11-20T00:23:42;6.00;;;1.73;;
54947;SDS011;41113;41.882;12.530;2022-11-20T00:26:09;6.93;;;2.10;;
54947;SDS011;41113;41.882;12.530;2022-11-20T00:28:37;5.55;;;1.55;;
54947;SDS011;41113;41.882;12.530;2022-11-20T00:31:06;6.40;;;1.60;;
54947;SDS011;41113;41.882;12.530;2022-11-20T00:33:41;3.20;;;1.30;;
54947;SDS011;41113;41.882;12.530;2022-11-20T00:36:09;8.77;;;2.15;;
54947;SDS011;41113;41.882;12.530;2022-11-20T00:38:36;6.40;;;1.80;;
54947;SDS011;41113;41.882;12.530;2022-11-20T00:41:03;6.68;;;1.85;;
54947;SDS011;41113;41.882;12.530;2022-11-20T00:43:30;7.38;;;1.90;;
54947;SDS011;41113;41.882;12.530;2022-11-20T00:45:57;11.10;;;3.20;;
54947;SDS011;41113;41.882;12.530;2022-11-20T00:48:25;12.73;;;3.90;;
54947;SDS011;41113;41.882;12.530;2022-11-20T00:50:52;10.70;;;3.42;;
54947;SDS011;41113;41.882;12.530;2022-11-20T00:53:18;9.15;;;2.72;;
54947;SDS011;41113;41.882;12.530;2022-11-20T00:55:51;8.25;;;2.53;;
54947;SDS011;41113;41.882;12.530;2022-11-20T00:58:31;9.30;;;2.92;;
54947;SDS011;41113;41.882;12.530;2022-11-20T01:01:02;9.35;;;2.40;;
54947;SDS011;41113;41.882;12.530;2022-11-20T01:03:34;11.35;;;2.33;;
54947;SDS011;41113;41.882;12.530;2022-11-20T01:06:05;9.10;;;2.70;;
54947;SDS011;41113;41.882;12.530;2022-11-20T01:08:41;9.55;;;2.78;;
54947;SDS011;41113;41.882;12.530;2022-11-20T01:11:12;10.50;;;3.10;;
54947;SDS011;41113;41.882;12.530;2022-11-20T01:13:43;10.75;;;3.10;;
54947;SDS011;41113;41.882;12.530;2022-11-20T01:18:40;7.28;;;2.58;;
54947;SDS011;41113;41.882;12.530;2022-11-20T01:21:08;6.13;;;2.15;;
54947;SDS011;41113;41.882;12.530;2022-11-20T01:23:37;7.73;;;2.37;;
54947;SDS011;41113;41.882;12.530;2022-11-20T01:26:05;10.38;;;3.55;;
54947;SDS011;41113;41.882;12.530;2022-11-20T01:28:32;9.93;;;4.00;;
54947;SDS011;41113;41.882;12.530;2022-11-20T01:30:58;10.32;;;3.90;;
54947;SDS011;41113;41.882;12.530;2022-11-20T01:33:24;11.25;;;3.85;;
54947;SDS011;41113;41.882;12.530;2022-11-20T01:35:50;11.38;;;3.30;;
54947;SDS011;41113;41.882;12.530;2022-11-20T01:38:16;10.07;;;3.30;;
54947;SDS011;41113;41.882;12.530;2022-11-20T01:40:42;10.55;;;3.47;;
54947;SDS011;41113;41.882;12.530;2022-11-20T01:43:16;12.00;;;4.00;;
54947;SDS011;41113;41.882;12.530;2022-11-20T01:48:51;11.05;;;3.63;;
54947;SDS011;41113;41.882;12.530;2022-11-20T01:51:24;10.73;;;3.78;;
54947;SDS011;41113;41.882;12.530;2022-11-20T01:53:58;12.00;;;4.47;;
54947;SDS011;41113;41.882;12.530;2022-11-20T01:56:28;11.32;;;4.20;;
54947;SDS011;41113;41.882;12.530;2022-11-20T01:58:56;11.13;;;4.45;;
54947;SDS011;41113;41.882;12.530;2022-11-20T02:01:25;10.52;;;4.07;;
54947;SDS011;41113;41.882;12.530;2022-11-20T02:03:51;11.57;;;3.88;;
54947;SDS011;41113;41.882;12.530;2022-11-20T02:06:25;11.00;;;4.03;;
54947;SDS011;41113;41.882;12.530;2022-11-20T02:08:54;10.32;;;3.63;;
54947;SDS011;41113;41.882;12.530;2022-11-20T02:11:19;9.82;;;3.30;;
54947;SDS011;41113;41.882;12.530;2022-11-20T02:13:45;9.20;;;3.28;;
54947;SDS011;41113;41.882;12.530;2022-11-20T02:18:58;10.85;;;4.03;;
54947;SDS011;41113;41.882;12.530;2022-11-20T02:24:14;13.93;;;5.60;;
54947;SDS011;41113;41.882;12.530;2022-11-20T02:29:42;15.45;;;5.38;;
54947;SDS011;41113;41.882;12.530;2022-11-20T02:32:18;10.80;;;4.88;;
54947;SDS011;41113;41.882;12.530;2022-11-20T02:34:43;13.05;;;5.13;;
54947;SDS011;41113;41.882;12.530;2022-11-20T02:37:09;12.88;;;5.07;;
54947;SDS011;41113;41.882;12.530;2022-11-20T02:39:34;14.93;;;5.30;;
54947;SDS011;41113;41.882;12.530;2022-11-20T02:42:00;11.05;;;4.93;;
54947;SDS011;41113;41.882;12.530;2022-11-20T02:44:26;11.30;;;4.20;;
54947;SDS011;41113;41.882;12.530;2022-11-20T02:46:51;11.40;;;4.88;;
54947;SDS011;41113;41.882;12.530;2022-11-20T02:49:16;11.80;;;4.68;;
54947;SDS011;41113;41.882;12.530;2022-11-20T02:51:42;11.57;;;4.00;;
54947;SDS011;41113;41.882;12.530;2022-11-20T02:54:07;10.82;;;4.15;;
54947;SDS011;41113;41.882;12.530;2022-11-20T02:56:32;13.98;;;4.60;;
54947;SDS011;41113;41.882;12.530;2022-11-20T02:58:58;9.50;;;4.28;;
54947;SDS011;41113;41.882;12.530;2022-11-20T03:01:23;15.27;;;5.53;;
54947;SDS011;41113;41.882;12.530;2022-11-20T03:03:48;12.93;;;5.00;;
54947;SDS011;41113;41.882;12.530;2022-11-20T03:06:15;13.05;;;5.28;;
54947;SDS011;41113;41.882;12.530;2022-11-20T03:08:41;11.77;;;4.95;;
54947;SDS011;41113;41.882;12.530;2022-11-20T03:11:07;11.20;;;5.35;;
54947;SDS011;41113;41.882;12.530;2022-11-20T03:13:33;12.90;;;5.13;;
54947;SDS011;41113;41.882;12.530;2022-11-20T03:16:04;15.70;;;5.53;;
54947;SDS011;41113;41.882;12.530;2022-11-20T03:18:31;14.32;;;5.70;;
54947;SDS011;41113;41.882;12.530;2022-11-20T03:20:57;12.63;;;5.47;;
54947;SDS011;41113;41.882;12.530;2022-11-20T03:23:24;12.77;;;5.63;;
54947;SDS011;41113;41.882;12.530;2022-11-20T03:25:49;12.20;;;5.80;;
54947;SDS011;41113;41.882;12.530;2022-11-20T03:28:15;15.77;;;6.70;;
54947;SDS011;41113;41.882;12.530;2022-11-20T03:30:40;18.48;;;9.93;;
54947;SDS011;41113;41.882;12.530;2022-11-20T03:33:05;19.80;;;10.73;;
54947;SDS011;41113;41.882;12.530;2022-11-20T03:35:31;20.25;;;11.82;;
54947;SDS011;41113;41.882;12.530;2022-11-20T03:37:57;22.92;;;13.43;;
54947;SDS011;41113;41.882;12.530;2022-11-20T03:40:22;21.98;;;12.57;;
54947;SDS011;41113;41.882;12.530;2022-11-20T03:42:48;19.00;;;11.38;;
54947;SDS011;41113;41.882;12.530;2022-11-20T03:45:14;15.45;;;9.52;;
54947;SDS011;41113;41.882;12.530;2022-11-20T03:47:43;16.30;;;9.85;;
54947;SDS011;41113;41.882;12.530;2022-11-20T03:50:09;12.20;;;7.30;;
54947;SDS011;41113;41.882;12.530;2022-11-20T03:52:37;12.38;;;6.30;;
54947;SDS011;41113;41.882;12.530;2022-11-20T03:55:03;11.35;;;5.13;;
54947;SDS011;41113;41.882;12.530;2022-11-20T03:57:29;10.50;;;4.95;;
54947;SDS011;41113;41.882;12.530;2022-11-20T03:59:54;9.50;;;4.28;;
54947;SDS011;41113;41.882;12.530;2022-11-20T04:02:20;8.80;;;4.20;;
54947;SDS011;41113;41.882;12.530;2022-11-20T04:04:45;8.48;;;3.90;;
54947;SDS011;41113;41.882;12.530;2022-11-20T04:07:10;10.07;;;3.67;;
54947;SDS011;41113;41.882;12.530;2022-11-20T04:09:36;8.23;;;3.55;;
54947;SDS011;41113;41.882;12.530;2022-11-20T04:12:01;8.20;;;3.00;;
54947;SDS011;41113;41.882;12.530;2022-11-20T04:14:26;9.40;;;2.83;;
54947;SDS011;41113;41.882;12.530;2022-11-20T04:16:52;7.60;;;3.10;;
54947;SDS011;41113;41.882;12.530;2022-11-20T04:19:17;8.23;;;3.53;;
54947;SDS011;41113;41.882;12.530;2022-11-20T04:21:43;8.82;;;3.17;;
54947;SDS011;41113;41.882;12.530;2022-11-20T04:24:09;6.75;;;2.42;;
54947;SDS011;41113;41.882;12.530;2022-11-20T04:26:35;9.68;;;2.55;;
54947;SDS011;41113;41.882;12.530;2022-11-20T04:29:01;7.70;;;2.10;;
54947;SDS011;41113;41.882;12.530;2022-11-20T04:31:28;8.82;;;2.20;;
54947;SDS011;41113;41.882;12.530;2022-11-20T04:33:55;5.93;;;1.85;;
54947;SDS011;41113;41.882;12.530;2022-11-20T04:36:25;7.25;;;1.88;;
54947;SDS011;41113;41.882;12.530;2022-11-20T04:38:55;5.70;;;1.67;;
54947;SDS011;41113;41.882;12.530;2022-11-20T04:41:22;4.32;;;1.50;;
54947;SDS011;41113;41.882;12.530;2022-11-20T04:43:50;5.70;;;1.63;;
54947;SDS011;41113;41.882;12.530;2022-11-20T04:46:17;5.30;;;1.83;;
54947;SDS011;41113;41.882;12.530;2022-11-20T04:48:44;5.20;;;1.80;;
54947;SDS011;41113;41.882;12.530;2022-11-20T04:51:09;6.65;;;1.83;;
54947;SDS011;41113;41.882;12.530;2022-11-20T04:53:35;4.40;;;1.60;;
54947;SDS011;41113;41.882;12.530;2022-11-20T04:56:08;4.32;;;1.40;;
54947;SDS011;41113;41.882;12.530;2022-11-20T04:58:34;6.43;;;1.75;;
54947;SDS011;41113;41.882;12.530;2022-11-20T05:01:04;4.22;;;1.67;;
54947;SDS011;41113;41.882;12.530;2022-11-20T05:03:38;4.93;;;1.42;;
54947;SDS011;41113;41.882;12.530;2022-11-20T05:06:05;5.50;;;2.13;;
54947;SDS011;41113;41.882;12.530;2022-11-20T05:08:31;5.35;;;1.80;;
54947;SDS011;41113;41.882;12.530;2022-11-20T05:11:01;4.68;;;1.52;;
54947;SDS011;41113;41.882;12.530;2022-11-20T05:13:31;5.90;;;1.98;;
54947;SDS011;41113;41.882;12.530;2022-11-20T05:16:06;7.25;;;1.90;;
54947;SDS011;41113;41.882;12.530;2022-11-20T05:18:33;4.72;;;1.60;;
54947;SDS011;41113;41.882;12.530;2022-11-20T05:21:00;4.40;;;1.60;;
54947;SDS011;41113;41.882;12.530;2022-11-20T05:23:26;5.75;;;1.88;;
54947;SDS011;41113;41.882;12.530;2022-11-20T05:25:53;5.47;;;1.85;;
54947;SDS011;41113;41.882;12.530;2022-11-20T05:28:19;5.82;;;2.05;;
54947;SDS011;41113;41.882;12.530;2022-11-20T05:30:45;6.35;;;1.75;;
54947;SDS011;41113;41.882;12.530;2022-11-20T05:33:10;6.03;;;2.03;;
54947;SDS011;41113;41.882;12.530;2022-11-20T05:35:35;4.57;;;1.55;;
54947;SDS011;41113;41.882;12.530;2022-11-20T05:38:01;3.97;;;1.73;;
54947;SDS011;41113;41.882;12.530;2022-11-20T05:40:26;7.65;;;2.20;;
54947;SDS011;41113;41.882;12.530;2022-11-20T05:42:51;8.80;;;2.17;;
54947;SDS011;41113;41.882;12.530;2022-11-20T05:45:17;5.93;;;1.90;;
54947;SDS011;41113;41.882;12.530;2022-11-20T05:47:42;6.80;;;2.33;;
54947;SDS011;41113;41.882;12.530;2022-11-20T05:50:07;6.60;;;2.22;;
54947;SDS011;41113;41.882;12.530;2022-11-20T05:52:33;6.13;;;1.70;;
54947;SDS011;41113;41.882;12.530;2022-11-20T05:54:58;5.30;;;1.67;;
54947;SDS011;41113;41.882;12.530;2022-11-20T05:57:24;6.05;;;1.60;;
54947;SDS011;41113;41.882;12.530;2022-11-20T05:59:49;4.47;;;1.40;;
54947;SDS011;41113;41.882;12.530;2022-11-20T06:02:14;5.03;;;1.52;;
54947;SDS011;41113;41.882;12.530;2022-11-20T06:04:40;3.85;;;1.40;;
54947;SDS011;41113;41.882;12.530;2022-11-20T06:07:05;4.22;;;1.50;;
54947;SDS011;41113;41.882;12.530;2022-11-20T06:09:31;3.30;;;1.30;;
54947;SDS011;41113;41.882;12.530;2022-11-20T06:11:56;3.53;;;1.40;;
54947;SDS011;41113;41.882;12.530;2022-11-20T06:14:22;3.83;;;1.40;;
54947;SDS011;41113;41.882;12.530;2022-11-20T06:16:47;5.30;;;1.55;;
54947;SDS011;41113;41.882;12.530;2022-11-20T06:19:13;3.10;;;1.35;;
54947;SDS011;41113;41.882;12.530;2022-11-20T06:21:38;4.63;;;1.45;;
54947;SDS011;41113;41.882;12.530;2022-11-20T06:24:04;3.22;;;1.13;;
54947;SDS011;41113;41.882;12.530;2022-11-20T06:26:29;3.50;;;1.23;;
54947;SDS011;41113;41.882;12.530;2022-11-20T06:28:55;4.07;;;1.30;;
54947;SDS011;41113;41.882;12.530;2022-11-20T06:31:22;4.88;;;1.25;;
54947;SDS011;41113;41.882;12.530;2022-11-20T06:33:49;5.13;;;1.52;;
54947;SDS011;41113;41.882;12.530;2022-11-20T06:36:16;4.90;;;1.40;;
54947;SDS011;41113;41.882;12.530;2022-11-20T06:38:42;2.05;;;1.08;;
54947;SDS011;41113;41.882;12.530;2022-11-20T06:41:11;2.70;;;1.20;;
54947;SDS011;41113;41.882;12.530;2022-11-20T06:46:03;5.32;;;1.30;;
54947;SDS011;41113;41.882;12.530;2022-11-20T06:48:29;5.70;;;1.90;;
54947;SDS011;41113;41.882;12.530;2022-11-20T06:50:55;6.05;;;1.77;;
54947;SDS011;41113;41.882;12.530;2022-11-20T06:53:22;12.95;;;5.30;;
54947;SDS011;41113;41.882;12.530;2022-11-20T06:55:48;11.50;;;3.05;;
54947;SDS011;41113;41.882;12.530;2022-11-20T06:58:13;11.27;;;2.85;;
54947;SDS011;41113;41.882;12.530;2022-11-20T07:00:40;5.80;;;1.95;;
54947;SDS011;41113;41.882;12.530;2022-11-20T07:03:06;5.95;;;1.50;;
54947;SDS011;41113;41.882;12.530;2022-11-20T07:05:33;6.53;;;1.60;;
54947;SDS011;41113;41.882;12.530;2022-11-20T07:07:59;5.95;;;1.50;;
54947;SDS011;41113;41.882;12.530;2022-11-20T07:10:25;3.22;;;1.23;;
54947;SDS011;41113;41.882;12.530;2022-11-20T07:12:51;3.67;;;1.20;;
54947;SDS011;41113;41.882;12.530;2022-11-20T07:15:17;11.40;;;3.55;;
54947;SDS011;41113;41.882;12.530;2022-11-20T07:17:43;8.02;;;2.17;;
54947;SDS011;41113;41.882;12.530;2022-11-20T07:20:09;4.72;;;1.40;;
54947;SDS011;41113;41.882;12.530;2022-11-20T07:22:34;1.88;;;1.08;;
54947;SDS011;41113;41.882;12.530;2022-11-20T07:25:00;4.13;;;1.50;;
54947;SDS011;41113;41.882;12.530;2022-11-20T07:27:26;5.97;;;1.27;;
54947;SDS011;41113;41.882;12.530;2022-11-20T07:29:52;4.85;;;1.40;;
54947;SDS011;41113;41.882;12.530;2022-11-20T07:32:17;3.25;;;1.20;;
54947;SDS011;41113;41.882;12.530;2022-11-20T07:34:42;4.03;;;1.73;;
54947;SDS011;41113;41.882;12.530;2022-11-20T07:37:08;6.63;;;1.45;;
54947;SDS011;41113;41.882;12.530;2022-11-20T07:39:33;4.15;;;1.33;;
54947;SDS011;41113;41.882;12.530;2022-11-20T07:41:58;4.47;;;1.42;;
54947;SDS011;41113;41.882;12.530;2022-11-20T07:44:24;3.17;;;1.30;;
54947;SDS011;41113;41.882;12.530;2022-11-20T07:46:49;3.95;;;1.50;;
54947;SDS011;41113;41.882;12.530;2022-11-20T07:49:14;7.85;;;2.17;;
54947;SDS011;41113;41.882;12.530;2022-11-20T07:51:40;7.88;;;2.75;;
54947;SDS011;41113;41.882;12.530;2022-11-20T07:54:05;10.55;;;3.00;;
54947;SDS011;41113;41.882;12.530;2022-11-20T07:56:31;7.28;;;1.73;;
54947;SDS011;41113;41.882;12.530;2022-11-20T07:58:56;7.57;;;1.70;;
54947;SDS011;41113;41.882;12.530;2022-11-20T08:01:22;6.38;;;1.60;;
54947;SDS011;41113;41.882;12.530;2022-11-20T08:03:47;4.38;;;1.40;;
54947;SDS011;41113;41.882;12.530;2022-11-20T08:06:12;4.25;;;1.20;;
54947;SDS011;41113;41.882;12.530;2022-11-20T08:08:39;5.47;;;1.40;;
54947;SDS011;41113;41.882;12.530;2022-11-20T08:11:05;3.25;;;1.10;;
54947;SDS011;41113;41.882;12.530;2022-11-20T08:13:49;9.15;;;3.08;;
54947;SDS011;41113;41.882;12.530;2022-11-20T08:16:33;5.50;;;1.60;;
54947;SDS011;41113;41.882;12.530;2022-11-20T08:18:59;5.35;;;1.40;;
54947;SDS011;41113;41.882;12.530;2022-11-20T08:21:24;4.00;;;1.60;;
54947;SDS011;41113;41.882;12.530;2022-11-20T08:23:54;3.00;;;1.20;;
54947;SDS011;41113;41.882;12.530;2022-11-20T08:26:20;6.15;;;1.70;;
54947;SDS011;41113;41.882;12.530;2022-11-20T08:28:46;5.72;;;1.70;;
54947;SDS011;41113;41.882;12.530;2022-11-20T08:31:11;3.35;;;1.30;;
54947;SDS011;41113;41.882;12.530;2022-11-20T08:33:37;3.25;;;1.40;;
54947;SDS011;41113;41.882;12.530;2022-11-20T08:36:02;5.78;;;1.55;;
54947;SDS011;41113;41.882;12.530;2022-11-20T08:38:29;5.63;;;1.33;;
54947;SDS011;41113;41.882;12.530;2022-11-20T08:40:56;2.80;;;1.30;;
54947;SDS011;41113;41.882;12.530;2022-11-20T08:43:44;5.32;;;1.48;;
54947;SDS011;41113;41.882;12.530;2022-11-20T08:46:09;5.20;;;1.70;;
54947;SDS011;41113;41.882;12.530;2022-11-20T08:48:35;3.88;;;1.52;;
54947;SDS011;41113;41.882;12.530;2022-11-20T08:51:00;6.00;;;1.40;;
54947;SDS011;41113;41.882;12.530;2022-11-20T08:53:26;4.13;;;1.63;;
54947;SDS011;41113;41.882;12.530;2022-11-20T08:55:52;6.97;;;1.77;;
54947;SDS011;41113;41.882;12.530;2022-11-20T08:58:18;5.65;;;1.55;;
54947;SDS011;41113;41.882;12.530;2022-11-20T09:00:43;5.35;;;1.60;;
54947;SDS011;41113;41.882;12.530;2022-11-20T09:03:08;6.20;;;1.92;;
54947;SDS011;41113;41.882;12.530;2022-11-20T09:05:34;4.00;;;1.52;;
54947;SDS011;41113;41.882;12.530;2022-11-20T09:07:59;5.07;;;1.70;;
54947;SDS011;41113;41.882;12.530;2022-11-20T09:10:25;3.53;;;1.40;;
54947;SDS011;41113;41.882;12.530;2022-11-20T09:12:52;9.45;;;3.05;;
54947;SDS011;41113;41.882;12.530;2022-11-20T09:15:17;7.88;;;2.33;;
54947;SDS011;41113;41.882;12.530;2022-11-20T09:17:50;7.90;;;2.65;;
54947;SDS011;41113;41.882;12.530;2022-11-20T09:20:16;6.00;;;2.33;;
54947;SDS011;41113;41.882;12.530;2022-11-20T09:22:42;7.10;;;1.75;;
54947;SDS011;41113;41.882;12.530;2022-11-20T09:25:07;5.75;;;1.60;;
54947;SDS011;41113;41.882;12.530;2022-11-20T09:27:33;5.22;;;1.58;;
54947;SDS011;41113;41.882;12.530;2022-11-20T09:29:58;4.78;;;1.60;;
54947;SDS011;41113;41.882;12.530;2022-11-20T09:32:23;4.03;;;1.38;;
54947;SDS011;41113;41.882;12.530;2022-11-20T09:34:49;3.08;;;1.33;;
54947;SDS011;41113;41.882;12.530;2022-11-20T09:37:14;4.63;;;1.65;;
54947;SDS011;41113;41.882;12.530;2022-11-20T09:39:39;4.18;;;1.70;;
54947;SDS011;41113;41.882;12.530;2022-11-20T09:42:14;5.18;;;1.70;;
54947;SDS011;41113;41.882;12.530;2022-11-20T09:56:09;4.10;;;1.40;;
54947;SDS011;41113;41.882;12.530;2022-11-20T09:58:39;3.85;;;1.30;;
54947;SDS011;41113;41.882;12.530;2022-11-20T10:01:17;5.25;;;1.75;;
54947;SDS011;41113;41.882;12.530;2022-11-20T10:06:24;5.18;;;1.70;;
54947;SDS011;41113;41.882;12.530;2022-11-20T10:09:16;3.13;;;1.30;;
54947;SDS011;41113;41.882;12.530;2022-11-20T10:25:18;5.55;;;1.42;;
54947;SDS011;41113;41.882;12.530;2022-11-20T10:30:17;3.42;;;1.20;;
54947;SDS011;41113;41.882;12.530;2022-11-20T10:33:19;3.50;;;1.45;;
54947;SDS011;41113;41.882;12.530;2022-11-20T10:38:14;2.47;;;1.10;;
54947;SDS011;41113;41.882;12.530;2022-11-20T10:40:59;4.03;;;1.30;;
54947;SDS011;41113;41.882;12.530;2022-11-20T10:43:46;5.38;;;1.42;;
54947;SDS011;41113;41.882;12.530;2022-11-20T10:46:17;2.90;;;1.30;;
54947;SDS011;41113;41.882;12.530;2022-11-20T10:48:46;7.75;;;1.58;;
54947;SDS011;41113;41.882;12.530;2022-11-20T10:56:51;3.22;;;1.40;;
54947;SDS011;41113;41.882;12.530;2022-11-20T11:02:14;5.05;;;1.40;;
54947;SDS011;41113;41.882;12.530;2022-11-20T11:04:45;4.47;;;1.20;;
54947;SDS011;41113;41.882;12.530;2022-11-20T11:07:35;4.97;;;1.42;;
54947;SDS011;41113;41.882;12.530;2022-11-20T11:10:14;4.75;;;1.58;;
54947;SDS011;41113;41.882;12.530;2022-11-20T11:12:46;5.78;;;1.25;;
54947;SDS011;41113;41.882;12.530;2022-11-20T11:16:00;3.45;;;1.33;;
54947;SDS011;41113;41.882;12.530;2022-11-20T11:18:10;4.18;;;1.35;;
54947;SDS011;41113;41.882;12.530;2022-11-20T11:20:36;4.25;;;1.48;;
54947;SDS011;41113;41.882;12.530;2022-11-20T11:23:01;4.82;;;1.33;;
54947;SDS011;41113;41.882;12.530;2022-11-20T11:28:01;3.55;;;0.90;;
54947;SDS011;41113;41.882;12.530;2022-11-20T11:30:47;4.75;;;1.20;;
54947;SDS011;41113;41.882;12.530;2022-11-20T11:33:28;4.07;;;1.23;;
54947;SDS011;41113;41.882;12.530;2022-11-20T11:36:14;3.78;;;1.13;;
54947;SDS011;41113;41.882;12.530;2022-11-20T11:38:44;2.75;;;1.20;;
54947;SDS011;41113;41.882;12.530;2022-11-20T11:41:15;3.75;;;1.25;;
54947;SDS011;41113;41.882;12.530;2022-11-20T11:43:53;3.67;;;1.30;;
54947;SDS011;41113;41.882;12.530;2022-11-20T11:46:40;6.78;;;2.13;;
54947;SDS011;41113;41.882;12.530;2022-11-20T11:49:16;6.00;;;2.00;;
54947;SDS011;41113;41.882;12.530;2022-11-20T11:57:01;4.63;;;1.50;;
54947;SDS011;41113;41.882;12.530;2022-11-20T11:59:41;3.13;;;1.20;;
54947;SDS011;41113;41.882;12.530;2022-11-20T12:02:29;3.78;;;1.50;;
54947;SDS011;41113;41.882;12.530;2022-11-20T12:05:03;6.30;;;1.70;;
54947;SDS011;41113;41.882;12.530;2022-11-20T12:07:39;3.22;;;1.38;;
54947;SDS011;41113;41.882;12.530;2022-11-20T12:10:18;3.45;;;1.00;;
54947;SDS011;41113;41.882;12.530;2022-11-20T12:12:54;5.65;;;1.60;;
54947;SDS011;41113;41.882;12.530;2022-11-20T12:15:37;4.07;;;1.65;;
54947;SDS011;41113;41.882;12.530;2022-11-20T12:18:14;4.97;;;1.58;;
54947;SDS011;41113;41.882;12.530;2022-11-20T12:20:44;4.22;;;1.50;;
54947;SDS011;41113;41.882;12.530;2022-11-20T12:23:21;5.00;;;1.40;;
54947;SDS011;41113;41.882;12.530;2022-11-20T12:25:56;4.03;;;1.30;;
54947;SDS011;41113;41.882;12.530;2022-11-20T12:33:48;8.15;;;2.00;;
54947;SDS011;41113;41.882;12.530;2022-11-20T12:36:24;4.82;;;1.55;;
54947;SDS011;41113;41.882;12.530;2022-11-20T12:39:06;7.68;;;2.22;;
54947;SDS011;41113;41.882;12.530;2022-11-20T12:53:05;6.10;;;1.75;;
54947;SDS011;41113;41.882;12.530;2022-11-20T13:01:53;7.88;;;2.50;;
54947;SDS011;41113;41.882;12.530;2022-11-20T13:07:11;5.72;;;1.70;;
54947;SDS011;41113;41.882;12.530;2022-11-20T13:09:48;6.35;;;1.90;;
54947;SDS011;41113;41.882;12.530;2022-11-20T13:12:17;4.57;;;1.60;;
54947;SDS011;41113;41.882;12.530;2022-11-20T13:17:57;4.85;;;1.60;;
54947;SDS011;41113;41.882;12.530;2022-11-20T13:20:25;6.85;;;1.83;;
54947;SDS011;41113;41.882;12.530;2022-11-20T13:22:52;5.72;;;1.80;;
54947;SDS011;41113;41.882;12.530;2022-11-20T13:25:35;6.28;;;1.77;;
54947;SDS011;41113;41.882;12.530;2022-11-20T13:30:34;4.68;;;1.65;;
54947;SDS011;41113;41.882;12.530;2022-11-20T13:33:06;6.95;;;1.98;;
54947;SDS011;41113;41.882;12.530;2022-11-20T13:35:54;5.53;;;1.70;;
54947;SDS011;41113;41.882;12.530;2022-11-20T13:38:24;4.80;;;1.90;;
54947;SDS011;41113;41.882;12.530;2022-11-20T13:40:51;5.38;;;1.83;;
54947;SDS011;41113;41.882;12.530;2022-11-20T13:43:38;7.50;;;2.17;;
54947;SDS011;41113;41.882;12.530;2022-11-20T13:46:34;4.20;;;1.60;;
54947;SDS011;41113;41.882;12.530;2022-11-20T13:49:14;4.72;;;1.67;;
54947;SDS011;41113;41.882;12.530;2022-11-20T13:51:43;7.82;;;1.90;;
54947;SDS011;41113;41.882;12.530;2022-11-20T13:54:22;7.32;;;2.05;;
54947;SDS011;41113;41.882;12.530;2022-11-20T14:02:52;5.97;;;1.90;;
54947;SDS011;41113;41.882;12.530;2022-11-20T14:05:29;5.00;;;1.70;;
54947;SDS011;41113;41.882;12.530;2022-11-20T14:08:06;5.72;;;1.80;;
54947;SDS011;41113;41.882;12.530;2022-11-20T14:10:38;5.35;;;1.73;;
54947;SDS011;41113;41.882;12.530;2022-11-20T14:16:37;4.32;;;1.67;;
54947;SDS011;41113;41.882;12.530;2022-11-20T14:21:46;5.13;;;1.70;;
54947;SDS011;41113;41.882;12.530;2022-11-20T14:24:26;5.32;;;1.80;;
54947;SDS011;41113;41.882;12.530;2022-11-20T14:26:52;5.05;;;1.77;;
54947;SDS011;41113;41.882;12.530;2022-11-20T14:29:18;5.38;;;1.63;;
54947;SDS011;41113;41.882;12.530;2022-11-20T14:31:58;3.67;;;1.55;;
54947;SDS011;41113;41.882;12.530;2022-11-20T14:34:30;4.72;;;1.60;;
54947;SDS011;41113;41.882;12.530;2022-11-20T14:37:10;5.07;;;1.75;;
54947;SDS011;41113;41.882;12.530;2022-11-20T14:39:40;5.72;;;1.90;;
54947;SDS011;41113;41.882;12.530;2022-11-20T14:44:49;5.45;;;1.83;;
54947;SDS011;41113;41.882;12.530;2022-11-20T14:47:20;5.90;;;1.70;;
54947;SDS011;41113;41.882;12.530;2022-11-20T14:49:48;4.30;;;1.70;;
54947;SDS011;41113;41.882;12.530;2022-11-20T14:52:25;6.32;;;1.67;;
54947;SDS011;41113;41.882;12.530;2022-11-20T14:54:55;5.05;;;1.75;;
54947;SDS011;41113;41.882;12.530;2022-11-20T14:57:29;4.50;;;1.52;;
54947;SDS011;41113;41.882;12.530;2022-11-20T15:00:05;4.72;;;1.50;;
54947;SDS011;41113;41.882;12.530;2022-11-20T15:02:46;4.10;;;1.50;;
54947;SDS011;41113;41.882;12.530;2022-11-20T15:05:14;5.63;;;1.90;;
54947;SDS011;41113;41.882;12.530;2022-11-20T15:07:41;5.55;;;2.08;;
54947;SDS011;41113;41.882;12.530;2022-11-20T15:13:19;5.55;;;1.80;;
54947;SDS011;41113;41.882;12.530;2022-11-20T15:15:48;6.25;;;2.05;;
54947;SDS011;41113;41.882;12.530;2022-11-20T15:18:16;17.05;;;8.43;;
54947;SDS011;41113;41.882;12.530;2022-11-20T15:20:54;37.08;;;15.38;;
54947;SDS011;41113;41.882;12.530;2022-11-20T15:23:21;31.52;;;15.38;;
54947;SDS011;41113;41.882;12.530;2022-11-20T15:25:47;29.73;;;14.63;;
54947;SDS011;41113;41.882;12.530;2022-11-20T15:30:46;24.52;;;12.95;;
54947;SDS011;41113;41.882;12.530;2022-11-20T15:33:12;25.90;;;12.88;;
54947;SDS011;41113;41.882;12.530;2022-11-20T15:35:38;12.48;;;5.95;;
54947;SDS011;41113;41.882;12.530;2022-11-20T15:38:03;13.68;;;6.10;;
54947;SDS011;41113;41.882;12.530;2022-11-20T15:40:29;11.85;;;4.85;;
54947;SDS011;41113;41.882;12.530;2022-11-20T15:42:54;9.90;;;4.03;;
54947;SDS011;41113;41.882;12.530;2022-11-20T15:45:39;11.63;;;5.03;;
54947;SDS011;41113;41.882;12.530;2022-11-20T15:48:50;10.82;;;3.72;;
54947;SDS011;41113;41.882;12.530;2022-11-20T15:51:00;5.97;;;2.20;;
54947;SDS011;41113;41.882;12.530;2022-11-20T15:53:33;6.97;;;2.08;;
54947;SDS011;41113;41.882;12.530;2022-11-20T15:55:58;5.70;;;1.90;;
54947;SDS011;41113;41.882;12.530;2022-11-20T15:58:24;7.07;;;2.03;;
54947;SDS011;41113;41.882;12.530;2022-11-20T16:00:50;9.30;;;2.00;;
54947;SDS011;41113;41.882;12.530;2022-11-20T16:03:16;4.93;;;1.85;;
54947;SDS011;41113;41.882;12.530;2022-11-20T16:05:42;4.85;;;1.77;;
54947;SDS011;41113;41.882;12.530;2022-11-20T16:08:08;8.10;;;2.80;;
54947;SDS011;41113;41.882;12.530;2022-11-20T16:10:33;5.90;;;2.40;;
54947;SDS011;41113;41.882;12.530;2022-11-20T16:13:00;11.82;;;4.45;;
54947;SDS011;41113;41.882;12.530;2022-11-20T16:15:45;8.52;;;2.95;;
54947;SDS011;41113;41.882;12.530;2022-11-20T16:18:23;7.63;;;2.80;;
54947;SDS011;41113;41.882;12.530;2022-11-20T16:20:50;5.93;;;2.05;;
54947;SDS011;41113;41.882;12.530;2022-11-20T16:23:17;7.05;;;2.30;;
54947;SDS011;41113;41.882;12.530;2022-11-20T16:25:43;5.75;;;2.10;;
54947;SDS011;41113;41.882;12.530;2022-11-20T16:28:10;5.78;;;2.00;;
54947;SDS011;41113;41.882;12.530;2022-11-20T16:30:36;5.40;;;2.00;;
54947;SDS011;41113;41.882;12.530;2022-11-20T16:33:02;5.28;;;1.90;;
54947;SDS011;41113;41.882;12.530;2022-11-20T16:35:28;9.00;;;2.55;;
54947;SDS011;41113;41.882;12.530;2022-11-20T16:37:55;7.15;;;2.30;;
54947;SDS011;41113;41.882;12.530;2022-11-20T16:40:22;8.38;;;3.00;;